North Salem, New Hampshire
Current Conditions -  °F | °C
As of 12:54 AM on Saturday 25 Oct 2014 (Local Time) from KLWM Reporting Station
Overcast Overcast  
Wind Chill: 45°   Ceiling: 7500
Heat Index: 45°   Visibility: 10mi
Dew Point: 42°   Wind: 0mph
Humidity: 90%   Direction: NA
Pressure: 29.77"   Gusts: NA
Location:  42.84°N, 71.22°W
Report Text: KLWM 250454Z 00000KT 10SM FEW060 OVC075 07/06 A2977 RMK AO2 SLP081 T00720056 401170072
Loading
Personal Weather Stations






























Interactive Weather Map
Tropical Storm Tracking
New forecast layout! Learn more

10-Day Weather Forecast

Advertisements
Track Severe Weather on mobile